Terminal Aerodrome Forecast
Issued by NWS Shreveport, LA

Home | Current Version | Previous Version | Text Only | Print | Product List | Glossary On
Versions: 1 2 3 4 5 6 7 8 9 10 11 12 13 14 15 16
000
FTUS44 KSHV 021100 RRA
TAFMLU
TAF
KMLU 021148Z 0212/0312 02006KT P6SM OVC005
     FM021500 03011KT 4SM BR OVC007
      TEMPO 0216/0220 3SM -DZ BR OVC004
     FM030300 04003KT 2SM BR OVC004
     FM030500 04005KT 1/4SM FG OVC003=

USA.gov is the U.S. government's official web portal to all federal, state and local government web resources and services.